sensor_id;sensor_type;location;lat;lon;timestamp;P1;durP1;ratioP1;P2;durP2;ratioP2
44850;SDS011;30583;48.714;9.386;2023-06-04T00:02:09;12.85;;;7.07;;
44850;SDS011;30583;48.714;9.386;2023-06-04T00:04:35;12.98;;;6.45;;
44850;SDS011;30583;48.714;9.386;2023-06-04T00:07:00;12.02;;;7.25;;
44850;SDS011;30583;48.714;9.386;2023-06-04T00:09:26;9.45;;;5.90;;
44850;SDS011;30583;48.714;9.386;2023-06-04T00:11:51;9.52;;;6.25;;
44850;SDS011;30583;48.714;9.386;2023-06-04T00:14:17;11.25;;;6.60;;
44850;SDS011;30583;48.714;9.386;2023-06-04T00:16:42;14.60;;;7.07;;
44850;SDS011;30583;48.714;9.386;2023-06-04T00:19:08;12.63;;;6.55;;
44850;SDS011;30583;48.714;9.386;2023-06-04T00:21:34;12.32;;;6.05;;
44850;SDS011;30583;48.714;9.386;2023-06-04T00:24:00;10.00;;;6.40;;
44850;SDS011;30583;48.714;9.386;2023-06-04T00:26:26;16.38;;;6.55;;
44850;SDS011;30583;48.714;9.386;2023-06-04T00:28:54;14.48;;;6.85;;
44850;SDS011;30583;48.714;9.386;2023-06-04T00:31:20;12.15;;;7.18;;
44850;SDS011;30583;48.714;9.386;2023-06-04T00:33:46;11.98;;;6.88;;
44850;SDS011;30583;48.714;9.386;2023-06-04T00:36:12;13.43;;;6.53;;
44850;SDS011;30583;48.714;9.386;2023-06-04T00:38:38;9.57;;;6.25;;
44850;SDS011;30583;48.714;9.386;2023-06-04T00:41:03;11.25;;;6.95;;
44850;SDS011;30583;48.714;9.386;2023-06-04T00:43:29;10.60;;;6.50;;
44850;SDS011;30583;48.714;9.386;2023-06-04T00:45:56;10.80;;;6.65;;
44850;SDS011;30583;48.714;9.386;2023-06-04T00:48:22;10.80;;;6.20;;
44850;SDS011;30583;48.714;9.386;2023-06-04T00:50:48;10.52;;;6.45;;
44850;SDS011;30583;48.714;9.386;2023-06-04T00:53:15;11.43;;;5.88;;
44850;SDS011;30583;48.714;9.386;2023-06-04T00:55:41;11.48;;;6.70;;
44850;SDS011;30583;48.714;9.386;2023-06-04T00:58:08;11.55;;;7.05;;
44850;SDS011;30583;48.714;9.386;2023-06-04T01:00:34;12.60;;;7.03;;
44850;SDS011;30583;48.714;9.386;2023-06-04T01:03:02;11.32;;;7.03;;
44850;SDS011;30583;48.714;9.386;2023-06-04T01:05:40;10.60;;;6.57;;
44850;SDS011;30583;48.714;9.386;2023-06-04T01:08:27;11.45;;;6.85;;
44850;SDS011;30583;48.714;9.386;2023-06-04T01:10:56;11.18;;;7.00;;
44850;SDS011;30583;48.714;9.386;2023-06-04T01:13:23;11.85;;;7.68;;
44850;SDS011;30583;48.714;9.386;2023-06-04T01:15:49;10.18;;;6.53;;
44850;SDS011;30583;48.714;9.386;2023-06-04T01:18:17;9.45;;;6.43;;
44850;SDS011;30583;48.714;9.386;2023-06-04T01:20:52;10.15;;;6.38;;
44850;SDS011;30583;48.714;9.386;2023-06-04T01:23:46;10.07;;;6.10;;
44850;SDS011;30583;48.714;9.386;2023-06-04T01:26:23;8.50;;;5.88;;
44850;SDS011;30583;48.714;9.386;2023-06-04T01:28:54;8.88;;;5.72;;
44850;SDS011;30583;48.714;9.386;2023-06-04T01:31:21;8.23;;;5.72;;
44850;SDS011;30583;48.714;9.386;2023-06-04T01:33:51;14.02;;;6.97;;
44850;SDS011;30583;48.714;9.386;2023-06-04T01:36:18;9.90;;;5.97;;
44850;SDS011;30583;48.714;9.386;2023-06-04T01:38:43;9.60;;;5.60;;
44850;SDS011;30583;48.714;9.386;2023-06-04T01:41:10;9.73;;;5.85;;
44850;SDS011;30583;48.714;9.386;2023-06-04T01:43:35;10.88;;;5.55;;
44850;SDS011;30583;48.714;9.386;2023-06-04T01:46:01;9.63;;;5.70;;
44850;SDS011;30583;48.714;9.386;2023-06-04T01:48:28;12.75;;;6.50;;
44850;SDS011;30583;48.714;9.386;2023-06-04T01:50:54;9.27;;;5.88;;
44850;SDS011;30583;48.714;9.386;2023-06-04T01:53:20;10.93;;;5.90;;
44850;SDS011;30583;48.714;9.386;2023-06-04T01:55:46;9.20;;;6.30;;
44850;SDS011;30583;48.714;9.386;2023-06-04T01:58:14;9.55;;;6.28;;
44850;SDS011;30583;48.714;9.386;2023-06-04T02:00:42;11.77;;;6.55;;
44850;SDS011;30583;48.714;9.386;2023-06-04T02:03:08;9.32;;;6.05;;
44850;SDS011;30583;48.714;9.386;2023-06-04T02:05:35;10.02;;;6.32;;
44850;SDS011;30583;48.714;9.386;2023-06-04T02:08:01;8.35;;;6.00;;
44850;SDS011;30583;48.714;9.386;2023-06-04T02:10:29;9.02;;;6.53;;
44850;SDS011;30583;48.714;9.386;2023-06-04T02:12:56;11.68;;;6.93;;
44850;SDS011;30583;48.714;9.386;2023-06-04T02:15:24;10.27;;;6.82;;
44850;SDS011;30583;48.714;9.386;2023-06-04T02:17:54;9.55;;;5.40;;
44850;SDS011;30583;48.714;9.386;2023-06-04T02:20:24;8.10;;;5.07;;
44850;SDS011;30583;48.714;9.386;2023-06-04T02:22:54;9.63;;;5.53;;
44850;SDS011;30583;48.714;9.386;2023-06-04T02:25:20;9.57;;;5.03;;
44850;SDS011;30583;48.714;9.386;2023-06-04T02:27:45;9.50;;;5.30;;
44850;SDS011;30583;48.714;9.386;2023-06-04T02:30:11;9.20;;;4.68;;
44850;SDS011;30583;48.714;9.386;2023-06-04T02:32:36;6.90;;;4.65;;
44850;SDS011;30583;48.714;9.386;2023-06-04T02:35:03;8.50;;;4.65;;
44850;SDS011;30583;48.714;9.386;2023-06-04T02:37:29;7.95;;;5.15;;
44850;SDS011;30583;48.714;9.386;2023-06-04T02:39:55;8.23;;;5.00;;
44850;SDS011;30583;48.714;9.386;2023-06-04T02:42:21;8.80;;;5.32;;
44850;SDS011;30583;48.714;9.386;2023-06-04T02:44:46;10.23;;;4.50;;
44850;SDS011;30583;48.714;9.386;2023-06-04T02:47:12;8.32;;;5.00;;
44850;SDS011;30583;48.714;9.386;2023-06-04T02:49:37;8.20;;;4.85;;
44850;SDS011;30583;48.714;9.386;2023-06-04T02:52:03;8.35;;;5.07;;
44850;SDS011;30583;48.714;9.386;2023-06-04T02:54:28;8.55;;;5.70;;
44850;SDS011;30583;48.714;9.386;2023-06-04T02:56:54;7.25;;;4.70;;
44850;SDS011;30583;48.714;9.386;2023-06-04T02:59:19;9.60;;;5.93;;
44850;SDS011;30583;48.714;9.386;2023-06-04T03:01:45;8.38;;;5.40;;
44850;SDS011;30583;48.714;9.386;2023-06-04T03:04:11;9.10;;;5.22;;
44850;SDS011;30583;48.714;9.386;2023-06-04T03:06:40;9.40;;;5.32;;
44850;SDS011;30583;48.714;9.386;2023-06-04T03:09:09;12.75;;;6.43;;
44850;SDS011;30583;48.714;9.386;2023-06-04T03:11:36;8.00;;;5.78;;
44850;SDS011;30583;48.714;9.386;2023-06-04T03:14:01;9.60;;;6.15;;
44850;SDS011;30583;48.714;9.386;2023-06-04T03:16:27;9.85;;;6.05;;
44850;SDS011;30583;48.714;9.386;2023-06-04T03:18:52;8.30;;;5.70;;
44850;SDS011;30583;48.714;9.386;2023-06-04T03:21:18;10.23;;;5.57;;
44850;SDS011;30583;48.714;9.386;2023-06-04T03:23:44;8.60;;;4.55;;
44850;SDS011;30583;48.714;9.386;2023-06-04T03:26:09;7.10;;;3.90;;
44850;SDS011;30583;48.714;9.386;2023-06-04T03:28:38;8.85;;;4.43;;
44850;SDS011;30583;48.714;9.386;2023-06-04T03:31:03;9.38;;;4.60;;
44850;SDS011;30583;48.714;9.386;2023-06-04T03:33:29;6.85;;;4.63;;
44850;SDS011;30583;48.714;9.386;2023-06-04T03:35:55;11.65;;;4.63;;
44850;SDS011;30583;48.714;9.386;2023-06-04T03:38:23;10.80;;;5.90;;
44850;SDS011;30583;48.714;9.386;2023-06-04T03:40:52;9.25;;;5.72;;
44850;SDS011;30583;48.714;9.386;2023-06-04T03:43:18;9.10;;;4.53;;
44850;SDS011;30583;48.714;9.386;2023-06-04T03:45:44;8.02;;;4.28;;
44850;SDS011;30583;48.714;9.386;2023-06-04T03:48:10;7.03;;;3.92;;
44850;SDS011;30583;48.714;9.386;2023-06-04T03:50:36;7.45;;;3.80;;
44850;SDS011;30583;48.714;9.386;2023-06-04T03:53:01;10.32;;;3.95;;
44850;SDS011;30583;48.714;9.386;2023-06-04T03:55:30;7.75;;;3.67;;
44850;SDS011;30583;48.714;9.386;2023-06-04T03:57:57;6.65;;;3.47;;
44850;SDS011;30583;48.714;9.386;2023-06-04T04:00:23;7.78;;;3.90;;
44850;SDS011;30583;48.714;9.386;2023-06-04T04:02:48;7.20;;;4.10;;
44850;SDS011;30583;48.714;9.386;2023-06-04T04:05:15;10.45;;;5.90;;
44850;SDS011;30583;48.714;9.386;2023-06-04T04:07:40;11.48;;;6.85;;
44850;SDS011;30583;48.714;9.386;2023-06-04T04:10:06;8.93;;;4.80;;
44850;SDS011;30583;48.714;9.386;2023-06-04T04:12:32;8.25;;;3.70;;
44850;SDS011;30583;48.714;9.386;2023-06-04T04:14:58;10.38;;;3.97;;
44850;SDS011;30583;48.714;9.386;2023-06-04T04:17:23;6.95;;;3.60;;
44850;SDS011;30583;48.714;9.386;2023-06-04T04:19:49;6.43;;;4.10;;
44850;SDS011;30583;48.714;9.386;2023-06-04T04:22:15;9.07;;;4.20;;
44850;SDS011;30583;48.714;9.386;2023-06-04T04:24:42;10.15;;;4.65;;
44850;SDS011;30583;48.714;9.386;2023-06-04T04:27:08;9.55;;;4.38;;
44850;SDS011;30583;48.714;9.386;2023-06-04T04:29:36;8.95;;;4.78;;
44850;SDS011;30583;48.714;9.386;2023-06-04T04:32:03;8.60;;;4.50;;
44850;SDS011;30583;48.714;9.386;2023-06-04T04:34:35;8.57;;;4.50;;
44850;SDS011;30583;48.714;9.386;2023-06-04T04:37:05;9.18;;;4.38;;
44850;SDS011;30583;48.714;9.386;2023-06-04T04:39:33;9.60;;;3.92;;
44850;SDS011;30583;48.714;9.386;2023-06-04T04:42:01;6.68;;;3.20;;
44850;SDS011;30583;48.714;9.386;2023-06-04T04:44:27;7.47;;;3.67;;
44850;SDS011;30583;48.714;9.386;2023-06-04T04:46:52;7.93;;;3.40;;
44850;SDS011;30583;48.714;9.386;2023-06-04T04:49:18;7.75;;;3.90;;
44850;SDS011;30583;48.714;9.386;2023-06-04T04:51:43;7.43;;;4.07;;
44850;SDS011;30583;48.714;9.386;2023-06-04T04:54:09;7.57;;;3.92;;
44850;SDS011;30583;48.714;9.386;2023-06-04T04:56:34;7.40;;;3.83;;
44850;SDS011;30583;48.714;9.386;2023-06-04T04:59:00;7.00;;;3.60;;
44850;SDS011;30583;48.714;9.386;2023-06-04T05:01:26;7.53;;;3.95;;
44850;SDS011;30583;48.714;9.386;2023-06-04T05:03:52;6.90;;;4.22;;
44850;SDS011;30583;48.714;9.386;2023-06-04T05:06:17;6.05;;;3.70;;
44850;SDS011;30583;48.714;9.386;2023-06-04T05:08:43;7.20;;;3.75;;
44850;SDS011;30583;48.714;9.386;2023-06-04T05:11:09;6.28;;;3.72;;
44850;SDS011;30583;48.714;9.386;2023-06-04T05:13:34;6.85;;;4.05;;
44850;SDS011;30583;48.714;9.386;2023-06-04T05:16:01;6.53;;;4.15;;
44850;SDS011;30583;48.714;9.386;2023-06-04T05:18:31;8.23;;;4.45;;
44850;SDS011;30583;48.714;9.386;2023-06-04T05:20:58;10.02;;;4.40;;
44850;SDS011;30583;48.714;9.386;2023-06-04T05:23:24;8.10;;;4.38;;
44850;SDS011;30583;48.714;9.386;2023-06-04T05:25:51;8.13;;;4.18;;
44850;SDS011;30583;48.714;9.386;2023-06-04T05:28:17;8.85;;;3.90;;
44850;SDS011;30583;48.714;9.386;2023-06-04T05:30:43;7.43;;;3.65;;
44850;SDS011;30583;48.714;9.386;2023-06-04T05:33:09;5.82;;;3.45;;
44850;SDS011;30583;48.714;9.386;2023-06-04T05:35:42;6.88;;;3.72;;
44850;SDS011;30583;48.714;9.386;2023-06-04T05:38:13;7.93;;;3.78;;
44850;SDS011;30583;48.714;9.386;2023-06-04T05:40:43;5.80;;;3.45;;
44850;SDS011;30583;48.714;9.386;2023-06-04T05:43:12;5.65;;;3.28;;
44850;SDS011;30583;48.714;9.386;2023-06-04T05:45:38;7.00;;;3.15;;
44850;SDS011;30583;48.714;9.386;2023-06-04T05:48:05;7.63;;;2.80;;
44850;SDS011;30583;48.714;9.386;2023-06-04T05:50:31;5.75;;;2.90;;
44850;SDS011;30583;48.714;9.386;2023-06-04T05:52:56;5.03;;;2.70;;
44850;SDS011;30583;48.714;9.386;2023-06-04T05:55:22;5.03;;;2.70;;
44850;SDS011;30583;48.714;9.386;2023-06-04T05:57:48;6.30;;;2.65;;
44850;SDS011;30583;48.714;9.386;2023-06-04T06:00:16;6.30;;;2.85;;
44850;SDS011;30583;48.714;9.386;2023-06-04T06:02:42;8.02;;;3.28;;
44850;SDS011;30583;48.714;9.386;2023-06-04T06:05:08;8.30;;;3.28;;
44850;SDS011;30583;48.714;9.386;2023-06-04T06:07:34;7.95;;;3.55;;
44850;SDS011;30583;48.714;9.386;2023-06-04T06:10:00;5.03;;;2.83;;
44850;SDS011;30583;48.714;9.386;2023-06-04T06:12:27;4.75;;;2.30;;
44850;SDS011;30583;48.714;9.386;2023-06-04T06:14:53;6.32;;;2.47;;
44850;SDS011;30583;48.714;9.386;2023-06-04T06:17:18;4.53;;;2.05;;
44850;SDS011;30583;48.714;9.386;2023-06-04T06:19:44;8.73;;;3.20;;
44850;SDS011;30583;48.714;9.386;2023-06-04T06:22:09;5.25;;;3.40;;
44850;SDS011;30583;48.714;9.386;2023-06-04T06:24:35;4.15;;;2.47;;
44850;SDS011;30583;48.714;9.386;2023-06-04T06:27:01;4.05;;;2.50;;
44850;SDS011;30583;48.714;9.386;2023-06-04T06:29:26;6.07;;;2.70;;
44850;SDS011;30583;48.714;9.386;2023-06-04T06:31:52;5.78;;;2.80;;
44850;SDS011;30583;48.714;9.386;2023-06-04T06:34:17;6.68;;;2.22;;
44850;SDS011;30583;48.714;9.386;2023-06-04T06:36:43;5.55;;;2.53;;
44850;SDS011;30583;48.714;9.386;2023-06-04T06:39:09;7.63;;;2.80;;
44850;SDS011;30583;48.714;9.386;2023-06-04T06:41:35;5.10;;;2.50;;
44850;SDS011;30583;48.714;9.386;2023-06-04T06:44:03;5.60;;;2.92;;
44850;SDS011;30583;48.714;9.386;2023-06-04T06:46:29;6.80;;;2.83;;
44850;SDS011;30583;48.714;9.386;2023-06-04T06:48:54;7.63;;;2.90;;
44850;SDS011;30583;48.714;9.386;2023-06-04T06:51:20;4.53;;;2.33;;
44850;SDS011;30583;48.714;9.386;2023-06-04T06:53:45;3.58;;;2.20;;
44850;SDS011;30583;48.714;9.386;2023-06-04T06:56:11;4.93;;;2.40;;
44850;SDS011;30583;48.714;9.386;2023-06-04T06:58:38;4.88;;;2.92;;
44850;SDS011;30583;48.714;9.386;2023-06-04T07:01:04;6.40;;;3.30;;
44850;SDS011;30583;48.714;9.386;2023-06-04T07:03:30;6.53;;;2.80;;
44850;SDS011;30583;48.714;9.386;2023-06-04T07:05:56;6.28;;;2.50;;
44850;SDS011;30583;48.714;9.386;2023-06-04T07:08:22;5.78;;;2.47;;
44850;SDS011;30583;48.714;9.386;2023-06-04T07:10:48;3.95;;;2.05;;
44850;SDS011;30583;48.714;9.386;2023-06-04T07:13:14;10.05;;;3.00;;
44850;SDS011;30583;48.714;9.386;2023-06-04T07:15:40;7.95;;;3.03;;
44850;SDS011;30583;48.714;9.386;2023-06-04T07:18:05;4.53;;;2.90;;
44850;SDS011;30583;48.714;9.386;2023-06-04T07:20:31;8.23;;;3.55;;
44850;SDS011;30583;48.714;9.386;2023-06-04T07:22:56;9.48;;;3.20;;
44850;SDS011;30583;48.714;9.386;2023-06-04T07:25:22;3.80;;;2.40;;
44850;SDS011;30583;48.714;9.386;2023-06-04T07:27:48;4.43;;;2.50;;
44850;SDS011;30583;48.714;9.386;2023-06-04T07:30:17;5.38;;;2.95;;
44850;SDS011;30583;48.714;9.386;2023-06-04T07:32:50;5.78;;;2.80;;
44850;SDS011;30583;48.714;9.386;2023-06-04T07:35:16;4.75;;;2.50;;
44850;SDS011;30583;48.714;9.386;2023-06-04T07:37:42;7.47;;;2.63;;
44850;SDS011;30583;48.714;9.386;2023-06-04T07:40:10;5.22;;;3.30;;
44850;SDS011;30583;48.714;9.386;2023-06-04T07:42:36;6.47;;;2.67;;
44850;SDS011;30583;48.714;9.386;2023-06-04T07:45:02;5.13;;;2.75;;
44850;SDS011;30583;48.714;9.386;2023-06-04T07:47:28;7.07;;;2.60;;
44850;SDS011;30583;48.714;9.386;2023-06-04T07:49:53;6.32;;;2.70;;
44850;SDS011;30583;48.714;9.386;2023-06-04T07:52:19;5.35;;;2.47;;
44850;SDS011;30583;48.714;9.386;2023-06-04T07:54:45;5.45;;;2.20;;
44850;SDS011;30583;48.714;9.386;2023-06-04T07:57:10;4.93;;;2.80;;
44850;SDS011;30583;48.714;9.386;2023-06-04T07:59:36;4.70;;;2.30;;
44850;SDS011;30583;48.714;9.386;2023-06-04T08:02:01;4.63;;;2.25;;
44850;SDS011;30583;48.714;9.386;2023-06-04T08:04:27;6.63;;;2.55;;
44850;SDS011;30583;48.714;9.386;2023-06-04T08:06:53;7.53;;;2.90;;
44850;SDS011;30583;48.714;9.386;2023-06-04T08:09:19;5.47;;;2.60;;
44850;SDS011;30583;48.714;9.386;2023-06-04T08:11:44;5.03;;;2.55;;
44850;SDS011;30583;48.714;9.386;2023-06-04T08:14:10;6.30;;;3.53;;
44850;SDS011;30583;48.714;9.386;2023-06-04T08:16:37;5.45;;;3.08;;
44850;SDS011;30583;48.714;9.386;2023-06-04T08:19:03;4.07;;;2.17;;
44850;SDS011;30583;48.714;9.386;2023-06-04T08:21:29;6.18;;;2.53;;
44850;SDS011;30583;48.714;9.386;2023-06-04T08:23:55;9.98;;;3.08;;
44850;SDS011;30583;48.714;9.386;2023-06-04T08:26:21;5.80;;;2.75;;
44850;SDS011;30583;48.714;9.386;2023-06-04T08:28:49;9.23;;;2.78;;
44850;SDS011;30583;48.714;9.386;2023-06-04T08:31:16;6.95;;;2.90;;
44850;SDS011;30583;48.714;9.386;2023-06-04T08:33:41;8.23;;;2.63;;
44850;SDS011;30583;48.714;9.386;2023-06-04T08:36:07;6.57;;;2.75;;
44850;SDS011;30583;48.714;9.386;2023-06-04T08:38:33;6.28;;;2.70;;
44850;SDS011;30583;48.714;9.386;2023-06-04T08:41:02;6.18;;;2.13;;
44850;SDS011;30583;48.714;9.386;2023-06-04T08:43:41;4.63;;;2.42;;
44850;SDS011;30583;48.714;9.386;2023-06-04T08:46:11;5.80;;;2.00;;
44850;SDS011;30583;48.714;9.386;2023-06-04T08:48:38;7.95;;;2.17;;
44850;SDS011;30583;48.714;9.386;2023-06-04T08:51:05;1.38;;;0.75;;
44850;SDS011;30583;48.714;9.386;2023-06-04T08:53:35;3.50;;;1.42;;
44850;SDS011;30583;48.714;9.386;2023-06-04T08:56:04;12.30;;;3.17;;
44850;SDS011;30583;48.714;9.386;2023-06-04T08:58:30;9.63;;;2.45;;
44850;SDS011;30583;48.714;9.386;2023-06-04T09:00:58;6.15;;;2.97;;
44850;SDS011;30583;48.714;9.386;2023-06-04T09:03:28;5.28;;;2.53;;
44850;SDS011;30583;48.714;9.386;2023-06-04T09:05:57;5.72;;;2.28;;
44850;SDS011;30583;48.714;9.386;2023-06-04T09:08:29;4.20;;;2.78;;
44850;SDS011;30583;48.714;9.386;2023-06-04T09:10:57;4.47;;;2.35;;
44850;SDS011;30583;48.714;9.386;2023-06-04T09:13:25;5.90;;;2.70;;
44850;SDS011;30583;48.714;9.386;2023-06-04T09:16:02;6.57;;;2.83;;
44850;SDS011;30583;48.714;9.386;2023-06-04T09:18:30;8.35;;;2.70;;
44850;SDS011;30583;48.714;9.386;2023-06-04T09:21:00;5.70;;;2.67;;
44850;SDS011;30583;48.714;9.386;2023-06-04T09:23:27;5.18;;;2.63;;
44850;SDS011;30583;48.714;9.386;2023-06-04T09:25:53;7.00;;;2.42;;
44850;SDS011;30583;48.714;9.386;2023-06-04T09:28:18;6.72;;;3.20;;
44850;SDS011;30583;48.714;9.386;2023-06-04T09:30:52;5.15;;;2.80;;
44850;SDS011;30583;48.714;9.386;2023-06-04T09:33:17;4.78;;;2.63;;
44850;SDS011;30583;48.714;9.386;2023-06-04T09:35:52;5.63;;;2.65;;
44850;SDS011;30583;48.714;9.386;2023-06-04T09:38:21;5.80;;;2.47;;
44850;SDS011;30583;48.714;9.386;2023-06-04T09:40:47;4.68;;;2.90;;
44850;SDS011;30583;48.714;9.386;2023-06-04T09:43:23;12.57;;;3.00;;
44850;SDS011;30583;48.714;9.386;2023-06-04T09:45:49;7.15;;;3.20;;
44850;SDS011;30583;48.714;9.386;2023-06-04T09:48:21;7.28;;;2.90;;
44850;SDS011;30583;48.714;9.386;2023-06-04T09:50:47;6.07;;;2.83;;
44850;SDS011;30583;48.714;9.386;2023-06-04T09:53:20;4.80;;;3.00;;
44850;SDS011;30583;48.714;9.386;2023-06-04T09:55:58;6.25;;;3.08;;
44850;SDS011;30583;48.714;9.386;2023-06-04T09:58:27;5.10;;;2.78;;
44850;SDS011;30583;48.714;9.386;2023-06-04T10:00:57;6.15;;;3.80;;
44850;SDS011;30583;48.714;9.386;2023-06-04T10:03:25;7.40;;;3.70;;
44850;SDS011;30583;48.714;9.386;2023-06-04T10:05:56;6.40;;;3.10;;
44850;SDS011;30583;48.714;9.386;2023-06-04T10:08:22;8.02;;;3.17;;
44850;SDS011;30583;48.714;9.386;2023-06-04T10:10:51;6.63;;;2.85;;
44850;SDS011;30583;48.714;9.386;2023-06-04T10:13:24;6.70;;;3.20;;
44850;SDS011;30583;48.714;9.386;2023-06-04T10:15:52;6.10;;;3.22;;
44850;SDS011;30583;48.714;9.386;2023-06-04T10:18:19;7.03;;;3.25;;
44850;SDS011;30583;48.714;9.386;2023-06-04T10:20:46;6.65;;;3.35;;
44850;SDS011;30583;48.714;9.386;2023-06-04T10:23:12;6.85;;;3.60;;
44850;SDS011;30583;48.714;9.386;2023-06-04T10:25:39;6.95;;;3.72;;
44850;SDS011;30583;48.714;9.386;2023-06-04T10:28:04;5.30;;;3.38;;
44850;SDS011;30583;48.714;9.386;2023-06-04T10:30:30;18.70;;;7.97;;
44850;SDS011;30583;48.714;9.386;2023-06-04T10:32:56;14.60;;;8.43;;
44850;SDS011;30583;48.714;9.386;2023-06-04T10:35:32;25.35;;;22.60;;
44850;SDS011;30583;48.714;9.386;2023-06-04T10:38:09;19.52;;;14.48;;
44850;SDS011;30583;48.714;9.386;2023-06-04T10:40:37;10.30;;;7.18;;
44850;SDS011;30583;48.714;9.386;2023-06-04T10:43:06;11.93;;;6.90;;
44850;SDS011;30583;48.714;9.386;2023-06-04T10:45:36;12.23;;;8.48;;
44850;SDS011;30583;48.714;9.386;2023-06-04T10:48:02;48.90;;;39.67;;
44850;SDS011;30583;48.714;9.386;2023-06-04T10:50:29;35.15;;;27.40;;
44850;SDS011;30583;48.714;9.386;2023-06-04T10:52:56;36.53;;;32.50;;
44850;SDS011;30583;48.714;9.386;2023-06-04T10:55:23;11.25;;;7.95;;
44850;SDS011;30583;48.714;9.386;2023-06-04T10:57:59;6.32;;;3.92;;
44850;SDS011;30583;48.714;9.386;2023-06-04T11:00:43;6.13;;;3.40;;
44850;SDS011;30583;48.714;9.386;2023-06-04T11:03:14;6.18;;;3.40;;
44850;SDS011;30583;48.714;9.386;2023-06-04T11:05:44;6.03;;;3.70;;
44850;SDS011;30583;48.714;9.386;2023-06-04T11:08:11;7.43;;;3.92;;
44850;SDS011;30583;48.714;9.386;2023-06-04T11:10:40;6.82;;;3.80;;
44850;SDS011;30583;48.714;9.386;2023-06-04T11:13:07;10.27;;;3.75;;
44850;SDS011;30583;48.714;9.386;2023-06-04T11:15:40;8.00;;;3.75;;
44850;SDS011;30583;48.714;9.386;2023-06-04T11:18:12;7.65;;;3.80;;
44850;SDS011;30583;48.714;9.386;2023-06-04T11:20:40;8.13;;;3.10;;
44850;SDS011;30583;48.714;9.386;2023-06-04T11:23:07;8.20;;;3.72;;
44850;SDS011;30583;48.714;9.386;2023-06-04T11:25:33;8.73;;;4.07;;
44850;SDS011;30583;48.714;9.386;2023-06-04T11:27:59;7.03;;;3.25;;
44850;SDS011;30583;48.714;9.386;2023-06-04T11:30:26;9.18;;;3.83;;
44850;SDS011;30583;48.714;9.386;2023-06-04T11:33:04;6.80;;;3.53;;
44850;SDS011;30583;48.714;9.386;2023-06-04T11:35:31;5.65;;;3.50;;
44850;SDS011;30583;48.714;9.386;2023-06-04T11:38:05;7.32;;;4.57;;
44850;SDS011;30583;48.714;9.386;2023-06-04T11:40:30;9.15;;;5.55;;
44850;SDS011;30583;48.714;9.386;2023-06-04T11:42:56;5.28;;;3.53;;
44850;SDS011;30583;48.714;9.386;2023-06-04T11:45:22;8.18;;;3.55;;
44850;SDS011;30583;48.714;9.386;2023-06-04T11:47:49;6.57;;;3.50;;
44850;SDS011;30583;48.714;9.386;2023-06-04T11:50:17;8.00;;;3.78;;
44850;SDS011;30583;48.714;9.386;2023-06-04T11:52:43;6.18;;;3.40;;
44850;SDS011;30583;48.714;9.386;2023-06-04T11:55:09;5.47;;;3.20;;
44850;SDS011;30583;48.714;9.386;2023-06-04T11:57:37;8.75;;;4.28;;
44850;SDS011;30583;48.714;9.386;2023-06-04T12:00:04;6.00;;;3.60;;
44850;SDS011;30583;48.714;9.386;2023-06-04T12:02:37;6.30;;;4.03;;
44850;SDS011;30583;48.714;9.386;2023-06-04T12:05:29;7.55;;;3.88;;
44850;SDS011;30583;48.714;9.386;2023-06-04T12:08:03;5.35;;;3.60;;
44850;SDS011;30583;48.714;9.386;2023-06-04T12:10:52;5.55;;;3.65;;
44850;SDS011;30583;48.714;9.386;2023-06-04T12:13:17;9.50;;;3.80;;
44850;SDS011;30583;48.714;9.386;2023-06-04T12:15:43;7.82;;;4.28;;
44850;SDS011;30583;48.714;9.386;2023-06-04T12:18:24;6.70;;;3.80;;
44850;SDS011;30583;48.714;9.386;2023-06-04T12:20:50;5.90;;;3.10;;
44850;SDS011;30583;48.714;9.386;2023-06-04T12:23:20;7.68;;;3.47;;
44850;SDS011;30583;48.714;9.386;2023-06-04T12:25:49;6.53;;;3.65;;
44850;SDS011;30583;48.714;9.386;2023-06-04T12:28:19;6.10;;;3.47;;
44850;SDS011;30583;48.714;9.386;2023-06-04T12:30:45;6.82;;;3.33;;
44850;SDS011;30583;48.714;9.386;2023-06-04T12:33:11;5.93;;;3.53;;
44850;SDS011;30583;48.714;9.386;2023-06-04T12:35:37;5.82;;;3.22;;
44850;SDS011;30583;48.714;9.386;2023-06-04T12:38:03;6.18;;;3.42;;
44850;SDS011;30583;48.714;9.386;2023-06-04T12:40:30;4.78;;;3.10;;
44850;SDS011;30583;48.714;9.386;2023-06-04T12:42:56;4.97;;;3.08;;
44850;SDS011;30583;48.714;9.386;2023-06-04T12:45:21;5.88;;;3.63;;
44850;SDS011;30583;48.714;9.386;2023-06-04T12:47:47;11.30;;;3.80;;
44850;SDS011;30583;48.714;9.386;2023-06-04T12:50:12;5.40;;;3.38;;
44850;SDS011;30583;48.714;9.386;2023-06-04T12:52:38;4.90;;;2.97;;
44850;SDS011;30583;48.714;9.386;2023-06-04T12:55:04;6.10;;;3.20;;
44850;SDS011;30583;48.714;9.386;2023-06-04T12:57:30;5.90;;;3.10;;
44850;SDS011;30583;48.714;9.386;2023-06-04T12:59:56;5.70;;;3.13;;
44850;SDS011;30583;48.714;9.386;2023-06-04T13:02:22;6.55;;;3.70;;
44850;SDS011;30583;48.714;9.386;2023-06-04T13:04:47;7.25;;;3.50;;
44850;SDS011;30583;48.714;9.386;2023-06-04T13:07:18;8.00;;;3.50;;
44850;SDS011;30583;48.714;9.386;2023-06-04T13:09:43;8.93;;;4.68;;
44850;SDS011;30583;48.714;9.386;2023-06-04T13:12:09;9.32;;;5.38;;
44850;SDS011;30583;48.714;9.386;2023-06-04T13:14:34;9.23;;;4.70;;
44850;SDS011;30583;48.714;9.386;2023-06-04T13:17:00;9.52;;;3.75;;
44850;SDS011;30583;48.714;9.386;2023-06-04T13:19:26;9.00;;;5.13;;
44850;SDS011;30583;48.714;9.386;2023-06-04T13:21:51;10.48;;;5.15;;
44850;SDS011;30583;48.714;9.386;2023-06-04T13:24:17;15.32;;;9.63;;
44850;SDS011;30583;48.714;9.386;2023-06-04T13:26:42;12.35;;;6.90;;
44850;SDS011;30583;48.714;9.386;2023-06-04T13:29:08;23.00;;;10.70;;
44850;SDS011;30583;48.714;9.386;2023-06-04T13:31:34;17.35;;;8.30;;
44850;SDS011;30583;48.714;9.386;2023-06-04T13:33:59;10.20;;;4.72;;
44850;SDS011;30583;48.714;9.386;2023-06-04T13:36:25;6.90;;;3.20;;
44850;SDS011;30583;48.714;9.386;2023-06-04T13:38:51;5.50;;;3.22;;
44850;SDS011;30583;48.714;9.386;2023-06-04T13:41:17;8.00;;;3.45;;
44850;SDS011;30583;48.714;9.386;2023-06-04T13:43:43;4.55;;;2.90;;
44850;SDS011;30583;48.714;9.386;2023-06-04T13:46:08;7.47;;;3.10;;
44850;SDS011;30583;48.714;9.386;2023-06-04T13:48:34;5.75;;;3.20;;
44850;SDS011;30583;48.714;9.386;2023-06-04T13:51:00;6.03;;;3.03;;
44850;SDS011;30583;48.714;9.386;2023-06-04T13:53:25;5.75;;;3.08;;
44850;SDS011;30583;48.714;9.386;2023-06-04T13:55:51;7.90;;;3.20;;
44850;SDS011;30583;48.714;9.386;2023-06-04T13:58:22;5.18;;;3.60;;
44850;SDS011;30583;48.714;9.386;2023-06-04T14:00:48;5.53;;;3.08;;
44850;SDS011;30583;48.714;9.386;2023-06-04T14:03:14;5.55;;;3.25;;
44850;SDS011;30583;48.714;9.386;2023-06-04T14:05:40;6.90;;;3.42;;
44850;SDS011;30583;48.714;9.386;2023-06-04T14:08:05;6.90;;;3.33;;
44850;SDS011;30583;48.714;9.386;2023-06-04T14:10:31;7.85;;;3.10;;
44850;SDS011;30583;48.714;9.386;2023-06-04T14:12:57;5.10;;;3.10;;
44850;SDS011;30583;48.714;9.386;2023-06-04T14:15:22;5.75;;;2.92;;
44850;SDS011;30583;48.714;9.386;2023-06-04T14:17:48;5.85;;;2.90;;
44850;SDS011;30583;48.714;9.386;2023-06-04T14:20:13;4.95;;;3.10;;
44850;SDS011;30583;48.714;9.386;2023-06-04T14:22:39;5.43;;;3.50;;
44850;SDS011;30583;48.714;9.386;2023-06-04T14:25:07;5.43;;;3.65;;
44850;SDS011;30583;48.714;9.386;2023-06-04T14:27:34;7.05;;;3.40;;
44850;SDS011;30583;48.714;9.386;2023-06-04T14:30:00;7.20;;;2.90;;
44850;SDS011;30583;48.714;9.386;2023-06-04T14:32:27;5.43;;;2.90;;
44850;SDS011;30583;48.714;9.386;2023-06-04T14:34:53;6.15;;;3.03;;
44850;SDS011;30583;48.714;9.386;2023-06-04T14:37:18;6.25;;;3.00;;
44850;SDS011;30583;48.714;9.386;2023-06-04T14:39:45;10.75;;;3.25;;
44850;SDS011;30583;48.714;9.386;2023-06-04T14:42:12;6.32;;;3.17;;
44850;SDS011;30583;48.714;9.386;2023-06-04T14:44:38;7.88;;;3.67;;
44850;SDS011;30583;48.714;9.386;2023-06-04T14:47:03;7.60;;;3.10;;